createdAt,value
2022-12-14T00:01:37.687Z,4.90
2022-12-14T00:04:04.583Z,4.90
2022-12-14T00:06:33.203Z,4.90
2022-12-14T00:09:02.805Z,4.90
2022-12-14T00:11:29.847Z,4.90
2022-12-14T00:13:59.159Z,4.90
2022-12-14T01:55:29.430Z,4.50
2022-12-14T01:58:15.257Z,4.50
2022-12-14T02:00:43.898Z,4.40
2022-12-14T02:03:17.816Z,4.30
2022-12-14T02:05:51.115Z,4.10
2022-12-14T02:08:19.307Z,4.20
2022-12-14T02:10:47.552Z,4.30
2022-12-14T02:13:27.270Z,4.50
2022-12-14T02:15:54.324Z,4.50
2022-12-14T02:18:25.925Z,4.50
2022-12-14T02:21:03.246Z,4.50
2022-12-14T02:24:09.098Z,4.30
2022-12-14T02:27:08.162Z,4.50
2022-12-14T02:30:00.171Z,4.60
2022-12-14T02:32:47.174Z,4.60
2022-12-14T02:35:35.164Z,4.50
2022-12-14T02:38:08.288Z,4.30
2022-12-14T02:41:04.600Z,4.20
2022-12-14T02:43:33.485Z,4.10
2022-12-14T02:46:02.934Z,4.20
2022-12-14T02:49:09.627Z,4.40
2022-12-14T02:51:51.797Z,4.50
2022-12-14T02:54:28.592Z,4.60
2022-12-14T02:57:04.095Z,4.60
2022-12-14T02:59:33.056Z,4.60
2022-12-14T03:02:03.186Z,4.60
2022-12-14T03:04:30.318Z,4.60
2022-12-14T03:07:02.697Z,4.60
2022-12-14T03:09:31.637Z,4.60
2022-12-14T03:12:07.165Z,4.60
2022-12-14T03:14:42.751Z,4.60
2022-12-14T03:17:20.494Z,4.60
2022-12-14T03:19:55.826Z,4.60
2022-12-14T03:22:37.061Z,4.60
2022-12-14T03:25:12.222Z,4.60
2022-12-14T03:27:43.214Z,4.60
2022-12-14T03:30:14.884Z,4.40
2022-12-14T03:32:47.797Z,4.30
2022-12-14T03:35:27.147Z,4.20
2022-12-14T03:37:58.623Z,4.10
2022-12-14T03:40:37.797Z,3.90
2022-12-14T03:43:25.591Z,3.90
2022-12-14T03:46:14.823Z,3.90
2022-12-14T03:48:45.597Z,3.80
2022-12-14T03:51:21.002Z,3.60
2022-12-14T03:54:07.057Z,3.60
2022-12-14T03:56:42.569Z,3.70
2022-12-14T03:59:21.345Z,3.60
2022-12-14T04:02:02.317Z,3.60
2022-12-14T04:05:08.189Z,3.60
2022-12-14T04:07:52.557Z,3.50
2022-12-14T04:10:43.392Z,3.40
2022-12-14T04:13:34.986Z,3.30
2022-12-14T04:16:26.704Z,3.30
2022-12-14T04:19:02.402Z,3.30
2022-12-14T04:22:21.381Z,3.40
2022-12-14T04:25:18.671Z,3.30
2022-12-14T04:27:52.064Z,3.30
2022-12-14T04:30:19.192Z,3.30
2022-12-14T04:32:51.528Z,3.20
2022-12-14T04:35:26.180Z,3.30
2022-12-14T04:38:14.474Z,3.30
2022-12-14T04:41:04.103Z,3.30
2022-12-14T04:43:36.738Z,3.30
2022-12-14T04:46:09.806Z,3.20
2022-12-14T04:48:42.969Z,3.20
2022-12-14T04:51:22.117Z,3.10
2022-12-14T04:53:53.315Z,3.10
2022-12-14T04:56:30.018Z,3.10
2022-12-14T04:58:56.908Z,3.40
2022-12-14T05:01:38.747Z,3.60
2022-12-14T05:04:30.687Z,3.60
2022-12-14T05:07:16.151Z,3.50
2022-12-14T05:10:06.608Z,3.50
2022-12-14T05:12:39.744Z,3.50
2022-12-14T05:15:18.506Z,3.50
2022-12-14T05:17:45.671Z,3.60
2022-12-14T05:20:18.665Z,3.80
2022-12-14T05:22:45.486Z,3.70
2022-12-14T05:25:12.391Z,3.60
2022-12-14T05:27:39.183Z,3.40
2022-12-14T05:30:06.774Z,3.30
2022-12-14T05:32:34.101Z,3.50
2022-12-14T05:35:01.706Z,3.50
2022-12-14T05:37:28.398Z,3.40
2022-12-14T05:39:55.383Z,3.30
2022-12-14T05:42:22.143Z,3.40
2022-12-14T05:44:48.993Z,3.40
2022-12-14T05:47:15.794Z,3.60
2022-12-14T05:49:42.666Z,3.70
2022-12-14T05:52:09.442Z,3.60
2022-12-14T05:54:36.506Z,3.50
2022-12-14T05:57:03.287Z,3.50
2022-12-14T05:59:32.660Z,3.40
2022-12-14T06:02:00.229Z,3.40
2022-12-14T06:04:27.264Z,3.50
2022-12-14T06:06:54.109Z,3.40
2022-12-14T06:09:21.180Z,3.50
2022-12-14T06:11:48.183Z,3.70
2022-12-14T06:14:15.099Z,3.80
2022-12-14T06:16:43.846Z,4.00
2022-12-14T06:19:11.725Z,4.00
2022-12-14T06:21:41.253Z,4.10
2022-12-14T06:24:10.897Z,4.20
2022-12-14T06:26:40.829Z,4.20
2022-12-14T06:29:11.295Z,4.20
2022-12-14T06:31:38.413Z,4.20
2022-12-14T06:34:05.379Z,4.20
2022-12-14T06:36:37.315Z,4.20
2022-12-14T06:39:07.455Z,4.20
2022-12-14T06:41:34.601Z,4.10
2022-12-14T06:44:19.857Z,4.10
2022-12-14T06:46:47.638Z,4.10
2022-12-14T06:49:16.067Z,4.20
2022-12-14T06:51:43.604Z,4.30
2022-12-14T06:54:12.191Z,4.40
2022-12-14T06:56:40.662Z,4.30
2022-12-14T06:59:08.900Z,4.40
2022-12-14T07:01:36.790Z,4.40
2022-12-14T07:04:04.911Z,4.40
2022-12-14T07:06:35.259Z,4.50
2022-12-14T07:09:02.220Z,4.50
2022-12-14T07:11:30.502Z,4.50
2022-12-14T07:14:00.891Z,4.50
2022-12-14T07:16:29.379Z,4.50
2022-12-14T07:18:56.842Z,4.50
2022-12-14T07:21:25.279Z,4.50
2022-12-14T07:23:53.060Z,4.50
2022-12-14T07:26:25.806Z,4.40
2022-12-14T07:28:53.753Z,4.40
2022-12-14T07:31:25.840Z,4.50
2022-12-14T07:33:58.499Z,4.50
2022-12-14T07:36:27.118Z,4.30
2022-12-14T07:38:55.616Z,4.20
2022-12-14T07:41:28.338Z,4.60
2022-12-14T07:43:55.735Z,4.20
2022-12-14T07:46:24.610Z,4.40
2022-12-14T07:48:54.304Z,4.60
2022-12-14T07:51:24.147Z,4.70
2022-12-14T07:53:51.673Z,4.80
2022-12-14T07:56:21.125Z,4.80
2022-12-14T07:58:48.657Z,4.90
2022-12-14T08:01:21.030Z,4.90
2022-12-14T08:03:56.114Z,4.90
2022-12-14T08:06:25.401Z,5.00
2022-12-14T08:08:53.804Z,5.00
2022-12-14T08:11:23.523Z,5.00
2022-12-14T08:13:54.576Z,5.00
2022-12-14T08:16:21.500Z,5.00
2022-12-14T08:18:48.414Z,5.00
2022-12-14T08:21:17.350Z,5.10
2022-12-14T08:23:44.123Z,5.00
2022-12-14T08:26:10.934Z,5.10
2022-12-14T08:28:37.689Z,5.10
2022-12-14T08:31:16.119Z,5.10
2022-12-14T08:33:44.384Z,5.10
2022-12-14T08:36:17.695Z,5.20
2022-12-14T08:38:44.600Z,5.20
2022-12-14T08:41:14.766Z,5.20
2022-12-14T08:43:41.956Z,5.20
2022-12-14T08:46:09.672Z,5.30
2022-12-14T08:48:38.201Z,5.40
2022-12-14T08:51:07.386Z,5.40
2022-12-14T08:53:35.205Z,5.50
2022-12-14T08:56:13.551Z,5.50
2022-12-14T08:58:41.429Z,5.50
2022-12-14T09:01:13.804Z,5.50
2022-12-14T09:03:45.350Z,5.40
2022-12-14T09:06:14.770Z,5.50
2022-12-14T09:08:41.698Z,5.50
2022-12-14T09:11:12.489Z,5.50
2022-12-14T09:13:40.171Z,5.60
2022-12-14T09:16:10.663Z,5.80
2022-12-14T09:18:37.475Z,5.80
2022-12-14T09:21:04.577Z,6.00
2022-12-14T09:23:33.195Z,5.80
2022-12-14T09:26:18.443Z,5.90
2022-12-14T09:28:48.519Z,6.00
2022-12-14T09:31:17.042Z,6.10
2022-12-14T09:33:44.119Z,6.10
2022-12-14T09:36:17.363Z,6.20
2022-12-14T09:38:50.569Z,6.30
2022-12-14T09:41:40.429Z,6.40
2022-12-14T09:44:24.658Z,6.50
2022-12-14T09:47:18.835Z,6.70
2022-12-14T09:49:55.106Z,6.80
2022-12-14T09:52:46.420Z,6.80
2022-12-14T09:55:38.140Z,6.90
2022-12-14T09:58:13.277Z,6.90
2022-12-14T10:00:52.945Z,7.00
2022-12-14T10:03:35.431Z,7.20
2022-12-14T10:06:36.211Z,7.00
2022-12-14T10:09:26.560Z,7.00
2022-12-14T10:12:01.946Z,7.00
2022-12-14T10:15:09.081Z,7.00
2022-12-14T10:17:58.721Z,7.00
2022-12-14T10:20:42.177Z,7.00
2022-12-14T10:23:23.257Z,7.00
2022-12-14T10:25:54.346Z,7.10
2022-12-14T10:28:53.027Z,7.20
2022-12-14T10:32:06.376Z,7.20
2022-12-14T10:34:34.809Z,7.30
2022-12-14T10:37:22.581Z,7.40
2022-12-14T10:40:17.509Z,7.50
2022-12-14T10:43:17.272Z,7.50
2022-12-14T10:45:50.266Z,7.50
2022-12-14T10:48:31.429Z,7.50
2022-12-14T10:51:07.207Z,7.50
2022-12-14T10:53:45.099Z,7.50
2022-12-14T10:56:19.008Z,7.50
2022-12-14T10:59:17.920Z,7.50
2022-12-14T11:01:47.813Z,7.20
2022-12-14T11:04:31.617Z,7.10
2022-12-14T11:07:01.885Z,7.10
2022-12-14T11:09:29.091Z,7.10
2022-12-14T11:12:05.496Z,7.10
2022-12-14T11:14:33.089Z,7.10
2022-12-14T11:16:59.895Z,7.10
2022-12-14T11:19:27.766Z,7.10
2022-12-14T11:22:21.727Z,7.20
2022-12-14T11:24:49.242Z,7.20
2022-12-14T11:27:21.325Z,7.20
2022-12-14T11:29:50.534Z,7.20
2022-12-14T11:32:23.930Z,7.20
2022-12-14T11:34:59.937Z,7.10
2022-12-14T11:37:30.095Z,7.20
2022-12-14T11:40:03.984Z,7.20
2022-12-14T11:42:31.366Z,7.10
2022-12-14T11:45:26.366Z,7.10
2022-12-14T11:48:22.723Z,7.10
2022-12-14T11:50:50.353Z,7.00
2022-12-14T11:53:19.990Z,7.10
2022-12-14T11:55:58.724Z,7.10
2022-12-14T11:58:29.462Z,7.20
2022-12-14T12:01:06.362Z,7.30
2022-12-14T12:03:48.439Z,7.40
2022-12-14T12:06:22.655Z,7.30
2022-12-14T12:09:03.618Z,7.30
2022-12-14T12:11:33.671Z,7.20
2022-12-14T12:14:33.402Z,7.30
2022-12-14T12:17:00.470Z,7.40
2022-12-14T12:19:30.574Z,7.30
2022-12-14T12:22:00.824Z,7.40
2022-12-14T12:25:00.988Z,7.60
2022-12-14T12:27:29.318Z,7.60
2022-12-14T12:30:07.125Z,7.70
2022-12-14T12:32:49.830Z,7.70
2022-12-14T12:35:46.918Z,7.80
2022-12-14T12:38:29.188Z,7.70
2022-12-14T12:41:24.232Z,7.30
2022-12-14T12:44:29.359Z,7.30
2022-12-14T12:49:53.123Z,7.00
2022-12-14T12:52:29.012Z,7.10
2022-12-14T12:55:18.533Z,7.30
2022-12-14T12:57:50.239Z,7.20
2022-12-14T13:00:25.844Z,7.10
2022-12-14T13:03:05.599Z,7.30
2022-12-14T13:05:47.724Z,7.30
2022-12-14T13:08:20.046Z,7.20
2022-12-14T13:11:17.283Z,7.10
2022-12-14T13:13:37.007Z,7.00
2022-12-14T13:16:11.864Z,6.80
2022-12-14T13:19:08.928Z,6.60
2022-12-14T13:21:37.211Z,6.50
2022-12-14T13:24:06.605Z,6.40
2022-12-14T13:27:12.320Z,6.50
2022-12-14T13:30:04.201Z,6.40
2022-12-14T13:32:42.621Z,6.30
2022-12-14T13:35:33.946Z,6.50
2022-12-14T13:38:09.481Z,6.50
2022-12-14T13:40:39.453Z,6.40
2022-12-14T13:43:27.799Z,6.10
2022-12-14T13:45:55.378Z,6.00
2022-12-14T13:48:28.102Z,6.20
2022-12-14T13:51:05.199Z,6.50
2022-12-14T13:53:40.264Z,6.60
2022-12-14T13:56:07.981Z,6.70
2022-12-14T13:58:44.222Z,6.60
2022-12-14T14:01:36.810Z,6.70
2022-12-14T14:04:21.044Z,6.90
2022-12-14T14:06:49.835Z,7.10
2022-12-14T14:09:47.629Z,7.20
2022-12-14T14:12:34.849Z,7.20
2022-12-14T14:15:25.883Z,7.10
2022-12-14T14:17:55.223Z,7.20
2022-12-14T14:20:44.709Z,7.20
2022-12-14T14:23:14.504Z,7.20
2022-12-14T14:25:52.086Z,7.30
2022-12-14T14:28:23.278Z,7.30
2022-12-14T14:30:56.640Z,7.30
2022-12-14T14:33:47.376Z,7.30
2022-12-14T14:36:30.970Z,7.40
2022-12-14T14:39:01.349Z,7.40
2022-12-14T14:41:36.052Z,7.40
2022-12-14T14:44:17.865Z,7.40
2022-12-14T14:46:49.677Z,7.30
2022-12-14T14:49:22.654Z,7.30
2022-12-14T14:51:50.137Z,7.30
2022-12-14T14:57:34.078Z,7.30
2022-12-14T15:00:02.865Z,7.30
2022-12-14T15:02:32.681Z,7.40
2022-12-14T15:05:17.925Z,7.40
2022-12-14T15:07:48.096Z,7.40
2022-12-14T15:10:34.325Z,7.40
2022-12-14T15:13:08.642Z,7.40
2022-12-14T15:15:59.270Z,7.40
2022-12-14T15:18:31.519Z,7.40
2022-12-14T15:21:01.257Z,7.30
2022-12-14T15:23:36.731Z,7.20
2022-12-14T15:26:16.256Z,7.10
2022-12-14T15:28:47.793Z,7.10
2022-12-14T15:31:14.831Z,7.00
2022-12-14T15:33:43.246Z,7.00
2022-12-14T15:36:18.468Z,6.90
2022-12-14T15:38:53.702Z,6.90
2022-12-14T15:41:23.607Z,6.80
2022-12-14T15:43:55.066Z,6.80
2022-12-14T15:46:30.591Z,6.70
2022-12-14T15:49:03.580Z,6.60
2022-12-14T15:51:36.833Z,6.60
2022-12-14T15:54:06.154Z,6.50
2022-12-14T15:56:45.559Z,6.50
2022-12-14T15:59:31.352Z,6.50
2022-12-14T16:02:43.055Z,6.30
2022-12-14T16:05:16.315Z,6.30
2022-12-14T16:07:47.919Z,6.10
2022-12-14T16:10:35.159Z,6.00
2022-12-14T16:13:25.373Z,6.00
2022-12-14T16:15:52.979Z,5.80
2022-12-14T16:18:20.557Z,5.50
2022-12-14T16:20:57.345Z,5.40
2022-12-14T16:23:31.000Z,5.30
2022-12-14T16:26:03.178Z,5.20
2022-12-14T16:28:37.752Z,5.10
2022-12-14T16:31:17.186Z,5.10
2022-12-14T16:33:44.626Z,5.00
2022-12-14T16:36:27.947Z,5.10
2022-12-14T16:39:04.840Z,5.00
2022-12-14T16:41:45.653Z,5.00
2022-12-14T16:44:22.470Z,5.00
2022-12-14T16:47:01.105Z,4.90
2022-12-14T16:49:34.826Z,5.00
2022-12-14T16:52:27.619Z,5.10
2022-12-14T16:55:13.321Z,5.20
2022-12-14T16:57:47.921Z,5.10
2022-12-14T17:00:36.097Z,5.00
2022-12-14T17:03:08.248Z,4.80
2022-12-14T17:05:38.135Z,4.70
2022-12-14T17:08:06.883Z,4.70
2022-12-14T17:10:34.938Z,4.70
2022-12-14T17:13:03.294Z,4.80
2022-12-14T17:15:33.012Z,4.80
2022-12-14T17:18:02.479Z,4.80
2022-12-14T17:20:31.700Z,5.00
2022-12-14T17:23:01.907Z,4.90
2022-12-14T17:25:30.719Z,5.00
2022-12-14T17:27:57.567Z,5.20
2022-12-14T17:30:25.201Z,5.20
2022-12-14T17:32:53.970Z,5.30
2022-12-14T17:35:26.746Z,5.30
2022-12-14T17:37:53.481Z,5.20
2022-12-14T17:40:20.326Z,5.20
2022-12-14T17:42:52.650Z,5.20
2022-12-14T17:45:29.258Z,5.30
2022-12-14T17:47:56.870Z,5.30
2022-12-14T17:50:25.145Z,5.20
2022-12-14T17:52:52.058Z,5.20
2022-12-14T17:55:24.241Z,5.20
2022-12-14T17:57:51.839Z,5.20
2022-12-14T18:00:43.711Z,5.10
2022-12-14T18:03:12.265Z,5.20
2022-12-14T18:05:46.487Z,5.10
2022-12-14T18:08:16.663Z,5.10
2022-12-14T18:10:43.858Z,5.00
2022-12-14T18:13:12.234Z,5.00
2022-12-14T18:15:43.860Z,5.00
2022-12-14T18:18:17.251Z,5.10
2022-12-14T18:20:50.562Z,5.10
2022-12-14T18:23:18.362Z,5.10
2022-12-14T18:25:48.428Z,5.00
2022-12-14T18:28:15.754Z,4.90
2022-12-14T18:30:49.607Z,4.80
2022-12-14T18:33:26.186Z,4.80
2022-12-14T18:35:54.125Z,4.80
2022-12-14T18:38:21.168Z,5.00
2022-12-14T18:40:50.787Z,4.90
2022-12-14T18:43:26.684Z,4.90
2022-12-14T18:45:54.630Z,4.80
2022-12-14T18:48:22.561Z,4.80
2022-12-14T18:50:50.210Z,4.80
2022-12-14T18:53:19.690Z,4.90
2022-12-14T18:55:47.609Z,5.00
2022-12-14T18:58:18.004Z,5.00
2022-12-14T19:00:46.438Z,5.00
2022-12-14T19:03:15.048Z,4.90
2022-12-14T19:05:42.279Z,4.90
2022-12-14T19:08:10.751Z,4.90
2022-12-14T19:10:40.978Z,4.90
2022-12-14T19:13:10.421Z,4.90
2022-12-14T19:15:37.749Z,4.80
2022-12-14T19:18:04.487Z,4.60
2022-12-14T19:20:31.223Z,4.60
2022-12-14T19:22:58.328Z,4.60
2022-12-14T19:25:25.537Z,4.70
2022-12-14T19:30:39.570Z,4.80
2022-12-14T19:33:06.542Z,4.70
2022-12-14T19:35:33.326Z,4.70
2022-12-14T19:38:00.425Z,4.80
2022-12-14T19:40:27.171Z,4.90
2022-12-14T19:42:54.014Z,4.80
2022-12-14T19:45:20.981Z,4.80
2022-12-14T19:47:47.821Z,4.80
2022-12-14T19:50:15.680Z,4.80
2022-12-14T19:52:43.597Z,4.80
2022-12-14T19:55:11.319Z,4.80
2022-12-14T19:57:39.581Z,4.80
2022-12-14T20:00:07.905Z,4.80
2022-12-14T20:02:34.860Z,4.80
2022-12-14T20:05:01.750Z,4.80
2022-12-14T20:07:28.526Z,4.80
2022-12-14T20:09:55.296Z,4.80
2022-12-14T20:12:22.134Z,4.80
2022-12-14T20:14:49.484Z,4.80
2022-12-14T20:17:16.612Z,4.80
2022-12-14T20:19:43.398Z,4.80
2022-12-14T20:22:10.605Z,4.80
2022-12-14T20:24:38.278Z,4.80
2022-12-14T20:27:05.150Z,4.70
2022-12-14T20:29:32.074Z,4.70
2022-12-14T20:31:58.833Z,4.70
2022-12-14T20:34:25.731Z,4.70
2022-12-14T20:36:52.544Z,4.80
2022-12-14T20:39:19.356Z,4.80
2022-12-14T20:41:46.072Z,4.70
2022-12-14T20:44:14.019Z,4.70
2022-12-14T20:46:44.465Z,4.70
2022-12-14T20:49:14.794Z,4.70
2022-12-14T20:51:42.502Z,4.70
2022-12-14T20:54:13.767Z,4.70
2022-12-14T20:56:40.951Z,4.70
2022-12-14T20:59:08.718Z,4.70
2022-12-14T21:01:37.666Z,4.60
2022-12-14T21:04:05.155Z,4.60
2022-12-14T21:06:33.354Z,4.50
2022-12-14T21:09:09.473Z,4.60
2022-12-14T21:11:56.685Z,4.60
2022-12-14T21:14:25.718Z,4.60
2022-12-14T21:16:52.783Z,4.60
2022-12-14T21:19:19.642Z,4.60
2022-12-14T21:21:53.069Z,4.60
2022-12-14T21:24:52.634Z,4.40
2022-12-14T21:27:09.938Z,4.30
2022-12-14T21:29:36.650Z,4.30
2022-12-14T21:32:04.303Z,4.30
2022-12-14T21:34:31.904Z,4.30
2022-12-14T21:36:59.179Z,4.30
2022-12-14T21:39:25.950Z,4.40
2022-12-14T21:42:10.665Z,4.30
2022-12-14T21:44:38.705Z,4.30
2022-12-14T21:47:07.669Z,4.30
2022-12-14T21:49:37.031Z,4.00
2022-12-14T21:52:07.322Z,3.90
2022-12-14T21:54:34.899Z,4.00
2022-12-14T21:57:20.227Z,4.00
2022-12-14T21:59:46.997Z,4.00
2022-12-14T22:02:22.367Z,4.00
2022-12-14T22:04:49.526Z,3.90
2022-12-14T22:07:18.730Z,3.80
2022-12-14T22:09:49.566Z,3.70
2022-12-14T22:12:18.101Z,3.60
2022-12-14T22:14:45.005Z,3.40
2022-12-14T22:17:13.522Z,3.30
2022-12-14T22:19:40.423Z,3.30
2022-12-14T22:22:07.394Z,3.40
2022-12-14T22:24:34.083Z,3.50
2022-12-14T22:27:00.853Z,3.60
2022-12-14T22:29:27.635Z,3.60
2022-12-14T22:31:54.507Z,3.70
2022-12-14T22:34:22.963Z,3.70
2022-12-14T22:36:51.494Z,3.70
2022-12-14T22:39:18.755Z,3.80
2022-12-14T22:41:46.077Z,3.90
2022-12-14T22:44:13.219Z,3.90
2022-12-14T22:46:40.770Z,3.90
2022-12-14T22:49:08.621Z,4.00
2022-12-14T22:51:35.641Z,3.90
2022-12-14T22:54:02.831Z,3.90
2022-12-14T22:56:29.472Z,3.80
2022-12-14T22:59:03.932Z,3.90
2022-12-14T23:01:32.306Z,3.80
2022-12-14T23:03:59.373Z,3.80
2022-12-14T23:06:26.402Z,3.80
2022-12-14T23:09:11.485Z,3.90
2022-12-14T23:11:57.138Z,4.10
2022-12-14T23:14:42.181Z,4.10
2022-12-14T23:17:27.754Z,4.20
2022-12-14T23:20:13.291Z,4.20
2022-12-14T23:22:58.719Z,4.20
2022-12-14T23:25:44.067Z,4.00
2022-12-14T23:28:29.767Z,4.10
2022-12-14T23:31:16.310Z,4.10
2022-12-14T23:34:01.889Z,4.10
2022-12-14T23:36:47.170Z,4.20
2022-12-14T23:39:32.355Z,4.20
2022-12-14T23:42:17.634Z,4.10
2022-12-14T23:45:03.245Z,4.00
2022-12-14T23:47:49.418Z,3.90
2022-12-14T23:50:35.325Z,3.80
2022-12-14T23:53:27.679Z,3.80
2022-12-14T23:56:13.021Z,3.80
2022-12-14T23:58:58.432Z,3.80
